createdAt,value
2023-05-19T00:01:30.981Z,53.30
2023-05-19T00:03:04.864Z,53.30
2023-05-19T00:04:40.430Z,53.30
2023-05-19T00:06:13.793Z,53.30
2023-05-19T00:07:52.817Z,53.30
2023-05-19T00:09:26.630Z,53.50
2023-05-19T00:11:00.659Z,53.40
2023-05-19T00:12:34.387Z,53.50
2023-05-19T00:14:10.532Z,53.40
2023-05-19T00:15:44.339Z,53.40
2023-05-19T00:17:18.264Z,53.50
2023-05-19T00:18:51.656Z,53.50
2023-05-19T00:20:24.915Z,53.40
2023-05-19T00:21:57.083Z,53.60
2023-05-19T00:23:31.543Z,53.60
2023-05-19T00:25:06.208Z,53.80
2023-05-19T00:26:39.552Z,53.70
2023-05-19T00:28:12.205Z,53.70
2023-05-19T00:29:45.354Z,53.70
2023-05-19T00:31:18.590Z,53.60
2023-05-19T00:32:52.505Z,53.60
2023-05-19T00:34:24.861Z,53.80
2023-05-19T00:35:57.992Z,53.70
2023-05-19T00:37:31.098Z,53.60
2023-05-19T00:39:04.701Z,53.80
2023-05-19T00:40:37.884Z,53.90
2023-05-19T00:42:11.082Z,53.90
2023-05-19T00:43:43.340Z,53.90
2023-05-19T00:45:16.475Z,53.90
2023-05-19T00:46:49.604Z,53.90
2023-05-19T00:48:22.925Z,54.00
2023-05-19T00:49:56.025Z,53.80
2023-05-19T00:51:31.306Z,53.80
2023-05-19T00:53:03.842Z,53.90
2023-05-19T00:54:38.369Z,53.80
2023-05-19T00:56:11.745Z,53.90
2023-05-19T00:57:45.951Z,53.80
2023-05-19T00:59:19.247Z,53.90
2023-05-19T01:00:52.774Z,54.10
2023-05-19T01:02:26.151Z,54.20
2023-05-19T01:03:59.094Z,54.30
2023-05-19T01:05:32.690Z,54.40
2023-05-19T01:07:06.222Z,54.50
2023-05-19T01:08:40.283Z,54.70
2023-05-19T01:10:15.552Z,54.70
2023-05-19T01:11:47.807Z,54.60
2023-05-19T01:13:21.134Z,54.50
2023-05-19T01:14:54.445Z,54.50
2023-05-19T01:16:36.470Z,55.10
2023-05-19T01:18:16.586Z,54.60
2023-05-19T01:20:06.538Z,54.50
2023-05-19T01:22:15.431Z,54.60
2023-05-19T01:24:03.720Z,54.70
2023-05-19T01:26:12.164Z,54.50
2023-05-19T01:28:31.899Z,54.70
2023-05-19T01:30:28.173Z,55.40
2023-05-19T01:32:04.986Z,54.60
2023-05-19T01:33:42.113Z,55.20
2023-05-19T01:35:16.919Z,55.30
2023-05-19T01:36:52.218Z,55.30
2023-05-19T01:38:28.647Z,55.70
2023-05-19T01:40:02.229Z,55.30
2023-05-19T01:41:39.069Z,55.30
2023-05-19T01:43:17.498Z,55.40
2023-05-19T01:44:51.621Z,55.50
2023-05-19T01:46:27.388Z,55.40
2023-05-19T01:48:04.281Z,55.50
2023-05-19T01:49:37.921Z,55.60
2023-05-19T01:51:11.110Z,55.60
2023-05-19T01:52:44.506Z,55.60
2023-05-19T01:54:17.626Z,55.70
2023-05-19T01:55:54.382Z,55.70
2023-05-19T01:57:44.019Z,55.70
2023-05-19T01:59:42.021Z,55.90
2023-05-19T02:01:34.989Z,56.00
2023-05-19T02:03:31.315Z,55.90
2023-05-19T02:05:14.440Z,55.90
2023-05-19T02:07:02.071Z,55.80
2023-05-19T02:08:44.845Z,55.90
2023-05-19T02:10:26.058Z,55.80
2023-05-19T02:12:09.762Z,55.80
2023-05-19T02:13:47.657Z,55.70
2023-05-19T02:15:26.945Z,55.80
2023-05-19T02:17:00.681Z,55.90
2023-05-19T02:18:36.901Z,55.90
2023-05-19T02:20:11.754Z,56.00
2023-05-19T02:21:43.934Z,56.10
2023-05-19T02:23:17.280Z,56.10
2023-05-19T02:24:51.602Z,56.10
2023-05-19T02:26:24.888Z,56.10
2023-05-19T02:28:00.223Z,56.00
2023-05-19T02:29:36.486Z,56.00
2023-05-19T02:31:10.084Z,55.90
2023-05-19T02:32:46.638Z,56.00
2023-05-19T02:34:21.181Z,56.00
2023-05-19T02:35:54.443Z,56.00
2023-05-19T02:37:28.345Z,56.00
2023-05-19T02:39:01.986Z,56.10
2023-05-19T02:40:35.403Z,56.10
2023-05-19T02:42:08.776Z,56.10
2023-05-19T02:43:42.216Z,56.20
2023-05-19T02:45:15.772Z,56.10
2023-05-19T02:46:48.911Z,56.10
2023-05-19T02:48:22.163Z,56.10
2023-05-19T02:49:55.638Z,56.20
2023-05-19T02:51:28.784Z,56.20
2023-05-19T02:53:01.140Z,56.20
2023-05-19T02:54:36.034Z,56.30
2023-05-19T02:56:09.224Z,56.40
2023-05-19T02:57:42.302Z,56.40
2023-05-19T02:59:15.693Z,56.50
2023-05-19T03:00:48.902Z,56.50
2023-05-19T03:02:21.189Z,56.50
2023-05-19T03:03:54.484Z,56.40
2023-05-19T03:05:29.944Z,56.40
2023-05-19T03:07:03.192Z,56.40
2023-05-19T03:08:36.767Z,56.40
2023-05-19T03:10:10.641Z,56.40
2023-05-19T03:11:43.829Z,56.30
2023-05-19T03:13:17.753Z,56.30
2023-05-19T03:14:51.073Z,56.30
2023-05-19T03:16:23.308Z,56.40
2023-05-19T03:17:56.703Z,56.40
2023-05-19T03:19:32.388Z,56.30
2023-05-19T03:21:06.923Z,56.30
2023-05-19T03:22:40.089Z,56.30
2023-05-19T03:24:13.206Z,56.30
2023-05-19T03:25:46.355Z,56.30
2023-05-19T03:27:18.493Z,56.30
2023-05-19T03:28:51.888Z,56.30
2023-05-19T03:30:25.565Z,56.40
2023-05-19T03:32:09.374Z,56.40
2023-05-19T03:33:43.180Z,56.40
2023-05-19T03:35:16.516Z,56.40
2023-05-19T03:36:50.981Z,56.40
2023-05-19T03:38:24.461Z,56.50
2023-05-19T03:40:04.910Z,56.40
2023-05-19T03:41:38.365Z,56.50
2023-05-19T03:43:11.484Z,56.50
2023-05-19T03:44:52.770Z,56.50
2023-05-19T03:46:25.146Z,56.70
2023-05-19T03:48:15.800Z,56.60
2023-05-19T03:50:12.119Z,56.60
2023-05-19T03:52:07.268Z,56.60
2023-05-19T03:53:54.798Z,56.60
2023-05-19T03:55:29.752Z,56.60
2023-05-19T03:57:03.258Z,56.60
2023-05-19T03:58:36.908Z,56.70
2023-05-19T04:00:12.246Z,56.70
2023-05-19T04:01:46.415Z,56.90
2023-05-19T04:03:19.774Z,56.80
2023-05-19T04:04:53.731Z,56.80
2023-05-19T04:06:26.941Z,56.70
2023-05-19T04:08:00.910Z,56.70
2023-05-19T04:09:35.237Z,56.90
2023-05-19T04:11:08.464Z,56.90
2023-05-19T04:12:42.308Z,56.90
2023-05-19T04:14:15.971Z,57.00
2023-05-19T04:15:50.241Z,57.00
2023-05-19T04:17:26.306Z,57.10
2023-05-19T04:19:00.837Z,57.10
2023-05-19T04:20:33.352Z,57.20
2023-05-19T04:22:06.804Z,57.10
2023-05-19T04:23:41.592Z,57.20
2023-05-19T04:25:13.922Z,57.20
2023-05-19T04:26:47.305Z,57.30
2023-05-19T04:28:21.591Z,57.30
2023-05-19T04:29:55.998Z,57.40
2023-05-19T04:31:29.847Z,57.60
2023-05-19T04:33:04.874Z,57.50
2023-05-19T04:34:40.062Z,57.60
2023-05-19T04:36:14.356Z,57.60
2023-05-19T04:37:49.369Z,57.60
2023-05-19T04:39:27.012Z,57.60
2023-05-19T04:41:01.682Z,57.60
2023-05-19T04:42:35.312Z,57.60
2023-05-19T04:44:09.902Z,57.60
2023-05-19T04:45:44.037Z,57.60
2023-05-19T04:47:21.340Z,57.60
2023-05-19T04:48:56.977Z,57.60
2023-05-19T04:50:32.708Z,57.80
2023-05-19T04:52:11.653Z,57.90
2023-05-19T04:53:46.492Z,58.00
2023-05-19T04:55:21.070Z,58.20
2023-05-19T04:56:55.416Z,58.20
2023-05-19T04:58:28.914Z,58.50
2023-05-19T05:00:02.076Z,58.10
2023-05-19T05:01:43.321Z,58.30
2023-05-19T05:03:19.293Z,58.40
2023-05-19T05:04:54.552Z,58.50
2023-05-19T05:06:28.514Z,58.60
2023-05-19T05:08:02.058Z,58.80
2023-05-19T05:09:39.570Z,58.90
2023-05-19T05:11:15.617Z,59.00
2023-05-19T05:12:49.022Z,59.30
2023-05-19T05:14:22.967Z,59.40
2023-05-19T05:15:56.204Z,59.50
2023-05-19T05:17:30.282Z,59.70
2023-05-19T05:19:04.319Z,59.90
2023-05-19T05:20:38.751Z,60.10
2023-05-19T05:22:13.106Z,60.30
2023-05-19T05:23:47.561Z,60.30
2023-05-19T05:25:22.310Z,60.50
2023-05-19T05:26:57.249Z,60.70
2023-05-19T05:28:31.310Z,60.80
2023-05-19T05:30:05.593Z,60.80
2023-05-19T05:31:56.567Z,60.90
2023-05-19T05:33:30.481Z,61.20
2023-05-19T05:35:04.194Z,61.30
2023-05-19T05:36:37.928Z,61.20
2023-05-19T05:38:12.938Z,61.20
2023-05-19T05:39:46.937Z,61.30
2023-05-19T05:41:21.673Z,61.40
2023-05-19T05:42:58.994Z,61.60
2023-05-19T05:44:35.669Z,61.70
2023-05-19T05:46:10.627Z,61.80
2023-05-19T05:47:44.517Z,61.90
2023-05-19T05:49:18.741Z,62.10
2023-05-19T05:50:54.556Z,62.10
2023-05-19T05:52:33.458Z,62.30
2023-05-19T05:54:08.840Z,62.50
2023-05-19T05:55:46.141Z,62.60
2023-05-19T05:57:20.158Z,62.60
2023-05-19T05:58:54.825Z,62.80
2023-05-19T06:00:28.232Z,62.90
2023-05-19T06:02:01.941Z,62.90
2023-05-19T06:03:38.050Z,62.80
2023-05-19T06:05:12.731Z,62.80
2023-05-19T06:06:46.463Z,62.90
2023-05-19T06:08:24.091Z,62.70
2023-05-19T06:09:57.673Z,62.90
2023-05-19T06:11:32.044Z,61.80
2023-05-19T06:13:06.329Z,61.90
2023-05-19T06:14:40.846Z,61.80
2023-05-19T06:16:16.714Z,61.90
2023-05-19T06:17:52.884Z,61.80
2023-05-19T06:19:26.238Z,61.90
2023-05-19T06:20:59.629Z,61.80
2023-05-19T06:22:32.907Z,61.60
2023-05-19T06:24:07.794Z,61.50
2023-05-19T06:25:40.882Z,61.60
2023-05-19T06:27:14.718Z,61.80
2023-05-19T06:28:47.908Z,61.80
2023-05-19T06:30:22.713Z,61.90
2023-05-19T06:32:16.310Z,61.90
2023-05-19T06:33:49.581Z,61.80
2023-05-19T06:35:22.949Z,61.80
2023-05-19T06:36:56.138Z,61.90
2023-05-19T06:38:29.528Z,61.90
2023-05-19T06:40:03.813Z,61.70
2023-05-19T06:41:36.979Z,61.80
2023-05-19T06:43:10.535Z,61.80
2023-05-19T06:44:59.527Z,61.80
2023-05-19T06:46:35.077Z,61.80
2023-05-19T06:48:08.392Z,61.80
2023-05-19T06:49:42.555Z,61.80
2023-05-19T06:51:21.455Z,61.70
2023-05-19T06:52:58.369Z,61.60
2023-05-19T06:54:31.769Z,61.70
2023-05-19T06:56:05.399Z,61.80
2023-05-19T06:57:40.636Z,61.70
2023-05-19T06:59:14.254Z,61.60
2023-05-19T07:00:47.371Z,61.40
2023-05-19T07:02:24.012Z,61.30
2023-05-19T07:03:57.302Z,61.50
2023-05-19T07:05:30.772Z,61.30
2023-05-19T07:07:06.164Z,61.20
2023-05-19T07:08:39.986Z,61.20
2023-05-19T07:10:14.523Z,61.40
2023-05-19T07:11:48.222Z,61.50
2023-05-19T07:13:21.440Z,61.20
2023-05-19T07:14:54.857Z,60.60
2023-05-19T07:16:29.662Z,60.40
2023-05-19T07:18:04.357Z,60.10
2023-05-19T07:19:37.532Z,59.80
2023-05-19T07:21:10.688Z,59.80
2023-05-19T07:22:44.353Z,59.60
2023-05-19T07:24:17.841Z,58.90
2023-05-19T07:25:56.311Z,58.50
2023-05-19T07:27:29.611Z,58.20
2023-05-19T07:29:02.836Z,58.10
2023-05-19T07:30:36.058Z,57.60
2023-05-19T07:32:09.225Z,57.20
2023-05-19T07:33:43.871Z,56.60
2023-05-19T07:35:17.256Z,56.10
2023-05-19T07:36:51.393Z,56.30
2023-05-19T07:38:24.546Z,56.20
2023-05-19T07:39:57.801Z,55.60
2023-05-19T07:41:30.973Z,55.20
2023-05-19T07:43:03.327Z,55.00
2023-05-19T07:44:36.741Z,54.50
2023-05-19T07:46:09.912Z,54.20
2023-05-19T07:47:43.051Z,53.80
2023-05-19T07:49:17.574Z,53.80
2023-05-19T07:50:51.568Z,52.90
2023-05-19T07:52:24.841Z,52.50
2023-05-19T07:53:58.220Z,52.50
2023-05-19T07:55:31.474Z,51.70
2023-05-19T07:57:05.038Z,51.50
2023-05-19T07:58:38.206Z,51.20
2023-05-19T08:00:13.339Z,51.10
2023-05-19T08:01:47.260Z,50.70
2023-05-19T08:03:20.698Z,50.20
2023-05-19T08:04:56.528Z,49.90
2023-05-19T08:06:32.312Z,49.50
2023-05-19T08:08:06.588Z,49.40
2023-05-19T08:09:39.673Z,48.90
2023-05-19T08:11:12.899Z,48.60
2023-05-19T08:12:46.042Z,48.20
2023-05-19T08:14:19.457Z,47.80
2023-05-19T08:15:54.300Z,47.80
2023-05-19T08:17:27.544Z,47.30
2023-05-19T08:19:02.526Z,47.00
2023-05-19T08:20:37.507Z,47.00
2023-05-19T08:22:10.749Z,46.10
2023-05-19T08:23:43.844Z,45.90
2023-05-19T08:25:17.104Z,46.00
2023-05-19T08:26:50.647Z,46.00
2023-05-19T08:28:23.763Z,45.40
2023-05-19T08:29:57.287Z,45.80
2023-05-19T08:31:30.474Z,44.60
2023-05-19T08:33:03.777Z,44.40
2023-05-19T08:34:36.969Z,44.30
2023-05-19T08:36:11.663Z,44.50
2023-05-19T08:37:44.774Z,44.10
2023-05-19T08:39:19.548Z,43.70
2023-05-19T08:40:52.845Z,43.60
2023-05-19T08:42:26.072Z,43.40
2023-05-19T08:43:59.620Z,43.80
2023-05-19T08:45:34.828Z,43.50
2023-05-19T08:47:13.660Z,43.50
2023-05-19T08:48:50.199Z,43.30
2023-05-19T08:50:33.496Z,42.40
2023-05-19T08:52:21.999Z,42.20
2023-05-19T08:54:05.501Z,41.80
2023-05-19T08:55:49.362Z,42.20
2023-05-19T08:57:24.505Z,41.30
2023-05-19T08:59:00.385Z,41.50
2023-05-19T09:00:35.052Z,41.20
2023-05-19T09:02:12.019Z,40.70
2023-05-19T09:03:46.197Z,40.00
2023-05-19T09:05:20.854Z,40.00
2023-05-19T09:06:54.282Z,39.70
2023-05-19T09:08:28.987Z,39.20
2023-05-19T09:10:02.294Z,39.00
2023-05-19T09:11:37.551Z,39.10
2023-05-19T09:13:11.032Z,39.70
2023-05-19T09:14:44.705Z,39.40
2023-05-19T09:16:18.276Z,39.20
2023-05-19T09:17:51.473Z,39.00
2023-05-19T09:19:29.374Z,38.70
2023-05-19T09:21:03.427Z,38.60
2023-05-19T09:22:45.117Z,38.70
2023-05-19T09:24:19.853Z,38.20
2023-05-19T09:25:54.303Z,38.30
2023-05-19T09:27:27.480Z,38.40
2023-05-19T09:29:00.594Z,38.50
2023-05-19T09:30:34.830Z,38.70
2023-05-19T09:32:08.322Z,37.90
2023-05-19T09:33:45.913Z,38.00
2023-05-19T09:35:20.517Z,37.80
2023-05-19T09:36:54.762Z,37.70
2023-05-19T09:38:28.504Z,36.90
2023-05-19T09:40:03.177Z,36.80
2023-05-19T09:41:36.290Z,36.60
2023-05-19T09:43:10.859Z,36.50
2023-05-19T09:44:44.868Z,36.70
2023-05-19T09:46:18.073Z,36.30
2023-05-19T09:47:51.223Z,36.10
2023-05-19T09:49:29.403Z,36.20
2023-05-19T09:51:03.449Z,36.50
2023-05-19T09:52:38.420Z,36.60
2023-05-19T09:54:16.862Z,36.00
2023-05-19T09:55:57.448Z,35.30
2023-05-19T09:57:36.885Z,35.20
2023-05-19T09:59:10.131Z,35.00
2023-05-19T10:00:44.157Z,35.60
2023-05-19T10:02:21.599Z,36.20
2023-05-19T10:03:55.126Z,36.20
2023-05-19T10:05:30.460Z,36.20
2023-05-19T10:07:07.021Z,36.40
2023-05-19T10:08:42.508Z,35.90
2023-05-19T10:10:17.042Z,35.50
2023-05-19T10:11:52.982Z,34.80
2023-05-19T10:13:28.006Z,34.70
2023-05-19T10:15:01.469Z,35.10
2023-05-19T10:16:36.192Z,35.00
2023-05-19T10:18:10.636Z,35.00
2023-05-19T10:19:46.489Z,34.60
2023-05-19T10:21:19.877Z,34.90
2023-05-19T10:22:53.131Z,34.40
2023-05-19T10:24:26.436Z,34.80
2023-05-19T10:26:04.033Z,35.30
2023-05-19T10:27:44.316Z,35.50
2023-05-19T10:29:23.972Z,35.50
2023-05-19T10:31:02.443Z,36.10
2023-05-19T10:32:38.303Z,36.30
2023-05-19T10:34:37.382Z,36.30
2023-05-19T10:36:35.576Z,35.80
2023-05-19T10:38:34.388Z,35.90
2023-05-19T10:40:13.541Z,36.00
2023-05-19T10:42:03.999Z,35.30
2023-05-19T10:43:55.306Z,34.50
2023-05-19T10:45:33.784Z,35.00
2023-05-19T10:47:08.247Z,35.70
2023-05-19T10:48:46.990Z,35.60
2023-05-19T10:50:21.883Z,35.70
2023-05-19T10:51:57.826Z,35.70
2023-05-19T10:53:34.843Z,35.80
2023-05-19T10:55:17.594Z,35.80
2023-05-19T10:56:50.795Z,35.70
2023-05-19T10:58:52.046Z,35.60
2023-05-19T11:00:31.188Z,33.80
2023-05-19T11:02:09.370Z,34.80
2023-05-19T11:03:52.016Z,34.80
2023-05-19T11:05:30.797Z,34.80
2023-05-19T11:07:04.573Z,34.80
2023-05-19T11:08:38.370Z,35.10
2023-05-19T11:10:12.611Z,35.00
2023-05-19T11:11:49.051Z,35.00
2023-05-19T11:13:23.003Z,35.00
2023-05-19T11:15:00.221Z,34.90
2023-05-19T11:16:33.812Z,34.90
2023-05-19T11:18:07.187Z,35.00
2023-05-19T11:19:41.047Z,35.00
2023-05-19T11:21:14.278Z,34.80
2023-05-19T11:23:05.764Z,34.80
2023-05-19T11:24:45.750Z,34.30
2023-05-19T11:26:42.901Z,34.60
2023-05-19T11:28:19.332Z,34.20
2023-05-19T11:29:53.813Z,34.90
2023-05-19T11:31:28.766Z,34.80
2023-05-19T11:33:02.527Z,34.60
2023-05-19T11:34:38.468Z,35.10
2023-05-19T11:36:13.446Z,34.90
2023-05-19T11:37:48.937Z,34.30
2023-05-19T11:39:22.277Z,34.30
2023-05-19T11:40:55.908Z,34.30
2023-05-19T11:42:29.179Z,34.50
2023-05-19T11:44:02.417Z,34.30
2023-05-19T11:45:36.579Z,34.70
2023-05-19T11:47:11.882Z,34.40
2023-05-19T11:48:48.632Z,34.40
2023-05-19T11:50:22.349Z,34.50
2023-05-19T11:51:56.281Z,34.50
2023-05-19T11:53:33.228Z,34.50
2023-05-19T11:55:09.664Z,34.70
2023-05-19T11:56:43.867Z,34.70
2023-05-19T11:58:17.417Z,34.60
2023-05-19T11:59:53.194Z,34.50
2023-05-19T12:01:26.968Z,34.90
2023-05-19T12:03:01.691Z,34.00
2023-05-19T12:04:35.040Z,33.70
2023-05-19T12:06:09.103Z,33.50
2023-05-19T12:07:44.028Z,33.50
2023-05-19T12:09:17.444Z,33.40
2023-05-19T12:10:51.413Z,33.30
2023-05-19T12:12:24.885Z,33.30
2023-05-19T12:14:00.531Z,33.20
2023-05-19T12:15:34.384Z,33.10
2023-05-19T12:17:16.435Z,33.20
2023-05-19T12:18:51.052Z,32.70
2023-05-19T12:20:24.900Z,33.00
2023-05-19T12:21:58.087Z,33.10
2023-05-19T12:23:31.567Z,33.20
2023-05-19T12:25:05.889Z,33.10
2023-05-19T12:26:39.247Z,33.00
2023-05-19T12:28:12.461Z,33.30
2023-05-19T12:29:52.682Z,33.20
2023-05-19T12:31:25.882Z,33.30
2023-05-19T12:32:59.484Z,33.60
2023-05-19T12:34:36.736Z,33.50
2023-05-19T12:36:13.268Z,33.10
2023-05-19T12:37:49.059Z,33.30
2023-05-19T12:39:22.467Z,33.20
2023-05-19T12:40:59.677Z,32.90
2023-05-19T12:42:33.497Z,32.90
2023-05-19T12:44:16.339Z,32.90
2023-05-19T12:45:49.643Z,32.50
2023-05-19T12:47:22.979Z,32.70
2023-05-19T12:49:01.456Z,32.60
2023-05-19T12:50:38.669Z,32.10
2023-05-19T12:52:23.189Z,32.20
2023-05-19T12:53:56.644Z,31.80
2023-05-19T12:55:31.028Z,32.00
2023-05-19T12:57:07.065Z,31.70
2023-05-19T12:58:41.073Z,31.60
2023-05-19T13:00:17.805Z,31.90
2023-05-19T13:01:58.411Z,31.70
2023-05-19T13:03:31.809Z,31.20
2023-05-19T13:05:05.613Z,31.50
2023-05-19T13:06:41.676Z,31.50
2023-05-19T13:08:16.579Z,31.30
2023-05-19T13:09:49.821Z,31.50
2023-05-19T13:11:22.921Z,31.50
2023-05-19T13:13:16.133Z,31.50
2023-05-19T13:15:09.448Z,31.50
2023-05-19T13:17:01.259Z,31.60
2023-05-19T13:18:37.475Z,31.70
2023-05-19T13:20:14.442Z,31.60
2023-05-19T13:21:50.491Z,31.70
2023-05-19T13:23:23.850Z,31.40
2023-05-19T13:24:59.765Z,30.70
2023-05-19T13:26:32.996Z,30.70
2023-05-19T13:28:06.895Z,30.90
2023-05-19T13:29:40.155Z,30.80
2023-05-19T13:31:13.516Z,30.80
2023-05-19T13:32:47.019Z,30.50
2023-05-19T13:34:20.232Z,30.50
2023-05-19T13:35:53.362Z,30.50
2023-05-19T13:37:28.248Z,30.10
2023-05-19T13:39:01.794Z,29.80
2023-05-19T13:40:35.563Z,30.00
2023-05-19T13:42:09.585Z,30.00
2023-05-19T13:43:42.716Z,29.80
2023-05-19T13:45:18.323Z,29.90
2023-05-19T13:46:52.442Z,30.00
2023-05-19T13:48:25.773Z,29.80
2023-05-19T13:49:58.934Z,29.80
2023-05-19T13:51:32.110Z,29.80
2023-05-19T13:53:06.700Z,30.00
2023-05-19T13:54:39.776Z,29.70
2023-05-19T13:56:12.917Z,29.90
2023-05-19T13:57:45.184Z,29.80
2023-05-19T13:59:18.725Z,29.70
2023-05-19T14:00:54.572Z,29.60
2023-05-19T14:02:27.879Z,29.70
2023-05-19T14:04:01.421Z,30.10
2023-05-19T14:05:35.483Z,29.60
2023-05-19T14:07:11.215Z,29.60
2023-05-19T14:08:46.656Z,29.60
2023-05-19T14:10:20.192Z,29.40
2023-05-19T14:11:53.497Z,29.40
2023-05-19T14:13:34.182Z,29.40
2023-05-19T14:15:11.619Z,29.60
2023-05-19T14:16:44.940Z,29.50
2023-05-19T14:18:20.836Z,29.50
2023-05-19T14:19:54.055Z,29.70
2023-05-19T14:21:28.169Z,29.60
2023-05-19T14:23:04.303Z,29.40
2023-05-19T14:24:41.403Z,29.30
2023-05-19T14:26:14.637Z,29.20
2023-05-19T14:27:50.830Z,29.30
2023-05-19T14:29:24.006Z,29.30
2023-05-19T14:30:57.306Z,29.40
2023-05-19T14:32:30.795Z,29.20
2023-05-19T14:34:05.050Z,29.40
2023-05-19T14:35:38.433Z,29.50
2023-05-19T14:37:14.757Z,29.40
2023-05-19T14:38:48.171Z,29.50
2023-05-19T14:40:22.762Z,29.40
2023-05-19T14:41:56.348Z,29.30
2023-05-19T14:43:29.708Z,29.10
2023-05-19T14:45:02.939Z,29.00
2023-05-19T14:46:36.695Z,29.10
2023-05-19T14:48:11.689Z,29.10
2023-05-19T14:49:45.016Z,29.00
2023-05-19T14:51:18.352Z,28.80
2023-05-19T14:52:51.705Z,28.80
2023-05-19T14:54:24.974Z,28.70
2023-05-19T14:55:59.697Z,28.10
2023-05-19T14:57:33.107Z,28.70
2023-05-19T14:59:06.365Z,28.60
2023-05-19T15:00:39.564Z,28.60
2023-05-19T15:02:12.778Z,28.50
2023-05-19T15:03:46.196Z,28.40
2023-05-19T15:05:19.703Z,28.40
2023-05-19T15:07:05.905Z,28.40
2023-05-19T15:08:43.265Z,28.40
2023-05-19T15:10:16.645Z,28.40
2023-05-19T15:11:51.334Z,28.40
2023-05-19T15:13:26.182Z,28.30
2023-05-19T15:14:59.574Z,28.40
2023-05-19T15:16:32.949Z,28.50
2023-05-19T15:18:06.230Z,28.40
2023-05-19T15:19:40.872Z,28.30
2023-05-19T15:21:14.081Z,28.30
2023-05-19T15:22:47.429Z,28.50
2023-05-19T15:24:20.694Z,28.40
2023-05-19T15:25:53.975Z,28.40
2023-05-19T15:27:28.481Z,28.10
2023-05-19T15:29:01.603Z,27.90
2023-05-19T15:30:35.077Z,28.10
2023-05-19T15:32:09.772Z,28.30
2023-05-19T15:33:42.759Z,28.20
2023-05-19T15:35:16.372Z,28.40
2023-05-19T15:36:49.523Z,28.10
2023-05-19T15:38:22.734Z,28.10
2023-05-19T15:39:55.983Z,27.90
2023-05-19T15:41:29.278Z,27.70
2023-05-19T15:43:03.809Z,27.90
2023-05-19T15:44:36.903Z,27.60
2023-05-19T15:46:12.995Z,28.00
2023-05-19T15:47:46.288Z,28.00
2023-05-19T15:49:19.521Z,28.00
2023-05-19T15:50:52.773Z,27.80
2023-05-19T15:52:26.259Z,28.00
2023-05-19T15:53:59.498Z,28.00
2023-05-19T15:55:32.627Z,28.00
2023-05-19T15:57:06.355Z,28.00
2023-05-19T15:58:41.226Z,28.00
2023-05-19T16:00:15.938Z,28.00
2023-05-19T16:01:50.579Z,28.00
2023-05-19T16:03:26.205Z,28.00
2023-05-19T16:04:59.509Z,28.00
2023-05-19T16:06:32.749Z,28.00
2023-05-19T16:08:08.512Z,28.00
2023-05-19T16:09:42.150Z,28.00
2023-05-19T16:11:20.555Z,27.90
2023-05-19T16:12:54.415Z,27.90
2023-05-19T16:14:31.003Z,27.70
2023-05-19T16:16:04.535Z,27.50
2023-05-19T16:17:40.314Z,27.60
2023-05-19T16:19:13.786Z,27.60
2023-05-19T16:20:47.174Z,27.70
2023-05-19T16:22:24.434Z,27.50
2023-05-19T16:23:57.654Z,27.50
2023-05-19T16:25:30.943Z,27.50
2023-05-19T16:27:04.829Z,27.70
2023-05-19T16:28:40.508Z,27.70
2023-05-19T16:30:16.289Z,27.70
2023-05-19T16:31:49.554Z,27.90
2023-05-19T16:33:22.863Z,28.10
2023-05-19T16:34:56.147Z,28.30
2023-05-19T16:36:29.395Z,28.30
2023-05-19T16:38:02.661Z,28.50
2023-05-19T16:39:37.656Z,28.50
2023-05-19T16:41:12.824Z,28.80
2023-05-19T16:42:49.575Z,28.70
2023-05-19T16:44:25.592Z,28.70
2023-05-19T16:46:00.259Z,28.90
2023-05-19T16:47:33.616Z,29.00
2023-05-19T16:49:07.429Z,29.10
2023-05-19T16:50:40.673Z,29.10
2023-05-19T16:52:13.804Z,29.10
2023-05-19T16:53:47.098Z,29.10
2023-05-19T16:55:20.506Z,29.20
2023-05-19T16:56:53.908Z,29.30
2023-05-19T16:58:28.806Z,29.20
2023-05-19T17:00:03.645Z,29.50
2023-05-19T17:01:38.662Z,29.40
2023-05-19T17:03:12.545Z,29.40
2023-05-19T17:04:46.089Z,29.40
2023-05-19T17:06:21.531Z,29.90
2023-05-19T17:07:57.246Z,29.90
2023-05-19T17:09:30.559Z,29.90
2023-05-19T17:11:03.746Z,29.90
2023-05-19T17:12:37.358Z,29.90
2023-05-19T17:14:10.673Z,29.90
2023-05-19T17:15:43.918Z,29.90
2023-05-19T17:17:18.614Z,29.80
2023-05-19T17:18:51.901Z,29.70
2023-05-19T17:20:25.132Z,29.80
2023-05-19T17:21:58.436Z,30.00
2023-05-19T17:23:31.762Z,30.00
2023-05-19T17:25:05.503Z,30.90
2023-05-19T17:26:38.805Z,30.40
2023-05-19T17:28:12.088Z,30.20
2023-05-19T17:29:47.499Z,30.20
2023-05-19T17:31:20.778Z,30.30
2023-05-19T17:32:57.219Z,30.40
2023-05-19T17:34:31.028Z,30.50
2023-05-19T17:36:04.625Z,30.60
2023-05-19T17:37:37.855Z,30.80
2023-05-19T17:39:11.108Z,30.80
2023-05-19T17:40:45.422Z,30.80
2023-05-19T17:42:18.613Z,31.10
2023-05-19T17:43:51.785Z,31.40
2023-05-19T17:45:26.400Z,32.20
2023-05-19T17:47:00.297Z,31.70
2023-05-19T17:48:36.101Z,31.80
2023-05-19T17:50:10.434Z,32.10
2023-05-19T17:51:44.393Z,32.20
2023-05-19T17:53:18.431Z,32.50
2023-05-19T17:54:52.555Z,32.80
2023-05-19T17:56:27.659Z,32.80
2023-05-19T17:58:01.784Z,32.70
2023-05-19T17:59:36.045Z,32.60
2023-05-19T18:01:10.288Z,32.50
2023-05-19T18:02:44.828Z,32.60
2023-05-19T18:04:20.656Z,32.90
2023-05-19T18:05:54.651Z,32.90
2023-05-19T18:07:30.171Z,32.80
2023-05-19T18:09:08.808Z,32.80
2023-05-19T18:10:43.809Z,33.10
2023-05-19T18:12:17.501Z,33.60
2023-05-19T18:13:50.808Z,33.90
2023-05-19T18:15:24.941Z,33.80
2023-05-19T18:16:58.293Z,33.80
2023-05-19T18:18:31.593Z,33.70
2023-05-19T18:20:07.647Z,34.20
2023-05-19T18:21:43.425Z,34.30
2023-05-19T18:23:16.628Z,34.30
2023-05-19T18:24:50.035Z,34.70
2023-05-19T18:26:23.301Z,34.30
2023-05-19T18:27:56.559Z,34.10
2023-05-19T18:29:29.742Z,34.10
2023-05-19T18:31:05.730Z,34.20
2023-05-19T18:32:38.955Z,34.30
2023-05-19T18:34:15.329Z,34.90
2023-05-19T18:35:49.981Z,35.20
2023-05-19T18:37:23.488Z,35.80
2023-05-19T18:38:58.140Z,35.80
2023-05-19T18:40:31.632Z,36.00
2023-05-19T18:42:05.842Z,36.20
2023-05-19T18:43:39.746Z,35.90
2023-05-19T18:45:13.627Z,36.20
2023-05-19T18:46:46.854Z,36.20
2023-05-19T18:48:21.485Z,36.10
2023-05-19T18:49:54.993Z,36.70
2023-05-19T18:51:29.858Z,36.90
2023-05-19T18:53:06.390Z,37.50
2023-05-19T18:54:41.839Z,37.50
2023-05-19T18:56:15.726Z,37.70
2023-05-19T18:57:48.963Z,38.20
2023-05-19T18:59:23.580Z,38.20
2023-05-19T19:00:59.874Z,38.30
2023-05-19T19:02:33.165Z,38.10
2023-05-19T19:04:09.391Z,38.30
2023-05-19T19:05:42.777Z,38.60
2023-05-19T19:07:17.408Z,38.70
2023-05-19T19:08:50.647Z,38.70
2023-05-19T19:10:34.447Z,38.80
2023-05-19T19:12:08.134Z,38.70
2023-05-19T19:13:44.543Z,39.00
2023-05-19T19:15:17.958Z,38.90
2023-05-19T19:16:51.256Z,39.30
2023-05-19T19:18:26.040Z,40.10
2023-05-19T19:19:59.501Z,39.60
2023-05-19T19:21:32.989Z,39.80
2023-05-19T19:23:07.646Z,39.90
2023-05-19T19:24:42.955Z,40.00
2023-05-19T19:26:16.277Z,40.10
2023-05-19T19:28:05.162Z,39.70
2023-05-19T19:29:38.545Z,39.90
2023-05-19T19:31:12.030Z,40.20
2023-05-19T19:32:45.465Z,40.10
2023-05-19T19:34:20.413Z,40.10
2023-05-19T19:35:53.829Z,40.20
2023-05-19T19:37:27.205Z,40.50
2023-05-19T19:39:01.767Z,40.70
2023-05-19T19:40:37.201Z,40.80
2023-05-19T19:42:10.550Z,40.90
2023-05-19T19:43:44.032Z,40.70
2023-05-19T19:45:17.784Z,41.10
2023-05-19T19:46:51.369Z,41.10
2023-05-19T19:48:27.883Z,41.20
2023-05-19T19:50:05.328Z,41.30
2023-05-19T19:51:38.692Z,41.60
2023-05-19T19:53:12.145Z,41.60
2023-05-19T19:54:46.711Z,41.60
2023-05-19T19:56:20.294Z,42.00
2023-05-19T19:57:53.540Z,42.00
2023-05-19T19:59:27.126Z,42.10
2023-05-19T20:01:02.727Z,42.00
2023-05-19T20:02:45.482Z,42.30
2023-05-19T20:04:32.410Z,42.40
2023-05-19T20:06:07.006Z,42.30
2023-05-19T20:07:40.217Z,42.50
2023-05-19T20:09:13.453Z,42.60
2023-05-19T20:10:59.288Z,42.70
2023-05-19T20:12:31.980Z,43.10
2023-05-19T20:14:05.402Z,42.70
2023-05-19T20:15:38.735Z,42.90
2023-05-19T20:17:12.018Z,43.10
2023-05-19T20:18:45.514Z,43.20
2023-05-19T20:20:19.042Z,43.20
2023-05-19T20:21:53.916Z,43.40
2023-05-19T20:23:27.241Z,43.40
2023-05-19T20:25:00.779Z,43.70
2023-05-19T20:26:36.296Z,43.70
2023-05-19T20:28:09.902Z,43.80
2023-05-19T20:29:43.249Z,43.80